sensor_id;sensor_type;location;lat;lon;timestamp;temperature;humidity
17815;DHT22;9031;50.974;11.330;2024-02-28T00:00:27;4.90;99.90
17815;DHT22;9031;50.974;11.330;2024-02-28T00:02:52;5.00;99.90
17815;DHT22;9031;50.974;11.330;2024-02-28T00:05:18;5.00;99.90
17815;DHT22;9031;50.974;11.330;2024-02-28T00:07:43;4.90;99.90
17815;DHT22;9031;50.974;11.330;2024-02-28T00:10:10;4.90;99.90
17815;DHT22;9031;50.974;11.330;2024-02-28T00:12:35;5.00;99.90
17815;DHT22;9031;50.974;11.330;2024-02-28T00:15:01;4.90;99.90
17815;DHT22;9031;50.974;11.330;2024-02-28T00:17:26;5.00;99.90
17815;DHT22;9031;50.974;11.330;2024-02-28T00:19:51;4.90;99.90
17815;DHT22;9031;50.974;11.330;2024-02-28T00:22:17;4.80;99.90
17815;DHT22;9031;50.974;11.330;2024-02-28T00:24:42;4.80;99.90
17815;DHT22;9031;50.974;11.330;2024-02-28T00:27:08;4.70;99.90
17815;DHT22;9031;50.974;11.330;2024-02-28T00:29:33;4.70;99.90
17815;DHT22;9031;50.974;11.330;2024-02-28T00:31:59;4.60;99.90
17815;DHT22;9031;50.974;11.330;2024-02-28T00:34:24;4.70;99.90
17815;DHT22;9031;50.974;11.330;2024-02-28T00:36:51;4.70;99.90
17815;DHT22;9031;50.974;11.330;2024-02-28T00:39:17;4.60;99.90
17815;DHT22;9031;50.974;11.330;2024-02-28T00:41:42;4.60;99.90
17815;DHT22;9031;50.974;11.330;2024-02-28T00:44:07;4.60;99.90
17815;DHT22;9031;50.974;11.330;2024-02-28T00:46:34;4.60;99.90
17815;DHT22;9031;50.974;11.330;2024-02-28T00:48:59;4.60;99.90
17815;DHT22;9031;50.974;11.330;2024-02-28T00:51:25;4.50;99.90
17815;DHT22;9031;50.974;11.330;2024-02-28T00:53:50;4.60;99.90
17815;DHT22;9031;50.974;11.330;2024-02-28T00:56:16;4.50;99.90
17815;DHT22;9031;50.974;11.330;2024-02-28T00:58:43;4.50;99.90
17815;DHT22;9031;50.974;11.330;2024-02-28T01:01:09;4.60;99.90
17815;DHT22;9031;50.974;11.330;2024-02-28T01:03:34;4.70;99.90
17815;DHT22;9031;50.974;11.330;2024-02-28T01:05:59;4.60;99.90
17815;DHT22;9031;50.974;11.330;2024-02-28T01:08:26;4.50;99.90
17815;DHT22;9031;50.974;11.330;2024-02-28T01:10:52;4.40;99.90
17815;DHT22;9031;50.974;11.330;2024-02-28T01:13:17;4.30;99.90
17815;DHT22;9031;50.974;11.330;2024-02-28T01:15:43;4.30;99.90
17815;DHT22;9031;50.974;11.330;2024-02-28T01:18:09;4.30;99.90
17815;DHT22;9031;50.974;11.330;2024-02-28T01:20:35;4.40;99.90
17815;DHT22;9031;50.974;11.330;2024-02-28T01:23:00;4.40;99.90
17815;DHT22;9031;50.974;11.330;2024-02-28T01:25:26;4.40;99.90
17815;DHT22;9031;50.974;11.330;2024-02-28T01:27:51;4.40;99.90
17815;DHT22;9031;50.974;11.330;2024-02-28T01:30:17;4.30;99.90
17815;DHT22;9031;50.974;11.330;2024-02-28T01:32:42;4.30;99.90
17815;DHT22;9031;50.974;11.330;2024-02-28T01:35:08;4.30;99.90
17815;DHT22;9031;50.974;11.330;2024-02-28T01:37:34;4.40;99.90
17815;DHT22;9031;50.974;11.330;2024-02-28T01:40:00;4.40;99.90
17815;DHT22;9031;50.974;11.330;2024-02-28T01:42:25;4.40;99.90
17815;DHT22;9031;50.974;11.330;2024-02-28T01:44:51;4.40;99.90
17815;DHT22;9031;50.974;11.330;2024-02-28T01:47:17;4.50;99.90
17815;DHT22;9031;50.974;11.330;2024-02-28T01:49:44;4.50;99.90
17815;DHT22;9031;50.974;11.330;2024-02-28T01:52:11;4.60;99.90
17815;DHT22;9031;50.974;11.330;2024-02-28T01:54:38;4.60;99.90
17815;DHT22;9031;50.974;11.330;2024-02-28T01:57:04;4.60;99.90
17815;DHT22;9031;50.974;11.330;2024-02-28T01:59:31;4.60;99.90
17815;DHT22;9031;50.974;11.330;2024-02-28T02:01:57;4.70;99.90
17815;DHT22;9031;50.974;11.330;2024-02-28T02:04:22;4.80;99.90
17815;DHT22;9031;50.974;11.330;2024-02-28T02:06:48;4.70;99.90
17815;DHT22;9031;50.974;11.330;2024-02-28T02:09:15;4.70;99.90
17815;DHT22;9031;50.974;11.330;2024-02-28T02:11:41;4.60;99.90
17815;DHT22;9031;50.974;11.330;2024-02-28T02:14:06;4.60;99.90
17815;DHT22;9031;50.974;11.330;2024-02-28T02:16:32;4.60;99.90
17815;DHT22;9031;50.974;11.330;2024-02-28T02:18:58;4.70;99.90
17815;DHT22;9031;50.974;11.330;2024-02-28T02:21:25;4.60;99.90
17815;DHT22;9031;50.974;11.330;2024-02-28T02:23:51;4.60;99.90
17815;DHT22;9031;50.974;11.330;2024-02-28T02:26:17;4.70;99.90
17815;DHT22;9031;50.974;11.330;2024-02-28T02:28:42;4.70;99.90
17815;DHT22;9031;50.974;11.330;2024-02-28T02:31:08;4.70;99.90
17815;DHT22;9031;50.974;11.330;2024-02-28T02:33:33;4.80;99.90
17815;DHT22;9031;50.974;11.330;2024-02-28T02:35:59;4.80;99.90
17815;DHT22;9031;50.974;11.330;2024-02-28T02:38:24;4.70;99.90
17815;DHT22;9031;50.974;11.330;2024-02-28T02:40:53;4.70;99.90
17815;DHT22;9031;50.974;11.330;2024-02-28T02:43:18;4.60;99.90
17815;DHT22;9031;50.974;11.330;2024-02-28T02:45:44;4.60;99.90
17815;DHT22;9031;50.974;11.330;2024-02-28T02:48:10;4.60;99.90
17815;DHT22;9031;50.974;11.330;2024-02-28T02:50:35;4.70;99.90
17815;DHT22;9031;50.974;11.330;2024-02-28T02:53:02;4.70;99.90
17815;DHT22;9031;50.974;11.330;2024-02-28T02:55:27;4.60;99.90
17815;DHT22;9031;50.974;11.330;2024-02-28T02:57:53;4.70;99.90
17815;DHT22;9031;50.974;11.330;2024-02-28T03:00:18;4.70;99.90
17815;DHT22;9031;50.974;11.330;2024-02-28T03:02:44;4.60;99.90
17815;DHT22;9031;50.974;11.330;2024-02-28T03:05:09;4.60;99.90
17815;DHT22;9031;50.974;11.330;2024-02-28T03:07:35;4.60;99.90
17815;DHT22;9031;50.974;11.330;2024-02-28T03:10:00;4.60;99.90
17815;DHT22;9031;50.974;11.330;2024-02-28T03:12:26;4.70;99.90
17815;DHT22;9031;50.974;11.330;2024-02-28T03:14:52;4.80;99.90
17815;DHT22;9031;50.974;11.330;2024-02-28T03:17:17;4.60;99.90
17815;DHT22;9031;50.974;11.330;2024-02-28T03:19:43;4.70;99.90
17815;DHT22;9031;50.974;11.330;2024-02-28T03:22:08;4.60;99.90
17815;DHT22;9031;50.974;11.330;2024-02-28T03:24:33;4.60;99.90
17815;DHT22;9031;50.974;11.330;2024-02-28T03:27:02;4.60;99.90
17815;DHT22;9031;50.974;11.330;2024-02-28T03:29:28;4.70;99.90
17815;DHT22;9031;50.974;11.330;2024-02-28T03:31:54;4.70;99.90
17815;DHT22;9031;50.974;11.330;2024-02-28T03:34:19;4.80;99.90
17815;DHT22;9031;50.974;11.330;2024-02-28T03:36:45;4.80;99.90
17815;DHT22;9031;50.974;11.330;2024-02-28T03:39:11;4.80;99.90
17815;DHT22;9031;50.974;11.330;2024-02-28T03:41:37;4.70;99.90
17815;DHT22;9031;50.974;11.330;2024-02-28T03:44:02;4.80;99.90
17815;DHT22;9031;50.974;11.330;2024-02-28T03:46:28;4.80;99.90
17815;DHT22;9031;50.974;11.330;2024-02-28T03:48:53;4.70;99.90
17815;DHT22;9031;50.974;11.330;2024-02-28T03:51:18;4.70;99.90
17815;DHT22;9031;50.974;11.330;2024-02-28T03:53:44;4.70;99.90
17815;DHT22;9031;50.974;11.330;2024-02-28T03:56:09;4.70;99.90
17815;DHT22;9031;50.974;11.330;2024-02-28T03:58:35;4.70;99.90
17815;DHT22;9031;50.974;11.330;2024-02-28T04:01:01;4.70;99.90
17815;DHT22;9031;50.974;11.330;2024-02-28T04:03:26;4.60;99.90
17815;DHT22;9031;50.974;11.330;2024-02-28T04:05:51;4.70;99.90
17815;DHT22;9031;50.974;11.330;2024-02-28T04:08:17;4.70;99.90
17815;DHT22;9031;50.974;11.330;2024-02-28T04:10:42;4.80;99.90
17815;DHT22;9031;50.974;11.330;2024-02-28T04:13:08;4.80;99.90
17815;DHT22;9031;50.974;11.330;2024-02-28T04:15:34;4.70;99.90
17815;DHT22;9031;50.974;11.330;2024-02-28T04:17:59;4.70;99.90
17815;DHT22;9031;50.974;11.330;2024-02-28T04:20:25;4.60;99.90
17815;DHT22;9031;50.974;11.330;2024-02-28T04:22:51;4.70;99.90
17815;DHT22;9031;50.974;11.330;2024-02-28T04:25:16;4.70;99.90
17815;DHT22;9031;50.974;11.330;2024-02-28T04:27:42;4.50;99.90
17815;DHT22;9031;50.974;11.330;2024-02-28T04:30:07;4.50;99.90
17815;DHT22;9031;50.974;11.330;2024-02-28T04:32:33;4.70;99.90
17815;DHT22;9031;50.974;11.330;2024-02-28T04:34:59;4.50;99.90
17815;DHT22;9031;50.974;11.330;2024-02-28T04:37:24;4.60;99.90
17815;DHT22;9031;50.974;11.330;2024-02-28T04:39:49;4.70;99.90
17815;DHT22;9031;50.974;11.330;2024-02-28T04:42:16;4.70;99.90
17815;DHT22;9031;50.974;11.330;2024-02-28T04:44:41;4.70;99.90
17815;DHT22;9031;50.974;11.330;2024-02-28T04:47:07;4.70;99.90
17815;DHT22;9031;50.974;11.330;2024-02-28T04:49:32;4.70;99.90
17815;DHT22;9031;50.974;11.330;2024-02-28T04:51:58;4.80;99.90
17815;DHT22;9031;50.974;11.330;2024-02-28T04:54:23;4.80;99.90
17815;DHT22;9031;50.974;11.330;2024-02-28T04:56:49;4.80;99.90
17815;DHT22;9031;50.974;11.330;2024-02-28T04:59:16;4.60;99.90
17815;DHT22;9031;50.974;11.330;2024-02-28T05:01:41;4.70;99.90
17815;DHT22;9031;50.974;11.330;2024-02-28T05:04:09;4.70;99.90
17815;DHT22;9031;50.974;11.330;2024-02-28T05:06:35;4.60;99.90
17815;DHT22;9031;50.974;11.330;2024-02-28T05:09:00;4.70;99.90
17815;DHT22;9031;50.974;11.330;2024-02-28T05:11:26;4.70;99.90
17815;DHT22;9031;50.974;11.330;2024-02-28T05:13:51;4.70;99.90
17815;DHT22;9031;50.974;11.330;2024-02-28T05:16:17;4.70;99.90
17815;DHT22;9031;50.974;11.330;2024-02-28T05:18:45;4.60;99.90
17815;DHT22;9031;50.974;11.330;2024-02-28T05:21:11;4.60;99.90
17815;DHT22;9031;50.974;11.330;2024-02-28T05:23:37;4.70;99.90
17815;DHT22;9031;50.974;11.330;2024-02-28T05:26:03;4.70;99.90
17815;DHT22;9031;50.974;11.330;2024-02-28T05:28:33;4.70;99.90
17815;DHT22;9031;50.974;11.330;2024-02-28T05:31:03;4.60;99.90
17815;DHT22;9031;50.974;11.330;2024-02-28T05:33:44;4.60;99.90
17815;DHT22;9031;50.974;11.330;2024-02-28T05:36:09;4.70;99.90
17815;DHT22;9031;50.974;11.330;2024-02-28T05:38:35;4.80;99.90
17815;DHT22;9031;50.974;11.330;2024-02-28T05:41:00;4.80;99.90
17815;DHT22;9031;50.974;11.330;2024-02-28T05:43:26;4.80;99.90
17815;DHT22;9031;50.974;11.330;2024-02-28T05:45:52;4.60;99.90
17815;DHT22;9031;50.974;11.330;2024-02-28T05:48:18;4.70;99.90
17815;DHT22;9031;50.974;11.330;2024-02-28T05:50:44;4.80;99.90
17815;DHT22;9031;50.974;11.330;2024-02-28T05:53:09;4.80;99.90
17815;DHT22;9031;50.974;11.330;2024-02-28T05:55:35;4.80;99.90
17815;DHT22;9031;50.974;11.330;2024-02-28T05:58:00;4.90;99.90
17815;DHT22;9031;50.974;11.330;2024-02-28T06:00:26;4.90;99.90
17815;DHT22;9031;50.974;11.330;2024-02-28T06:02:53;4.80;99.90
17815;DHT22;9031;50.974;11.330;2024-02-28T06:05:19;4.80;99.90
17815;DHT22;9031;50.974;11.330;2024-02-28T06:07:44;4.90;99.90
17815;DHT22;9031;50.974;11.330;2024-02-28T06:10:10;4.80;99.90
17815;DHT22;9031;50.974;11.330;2024-02-28T06:12:36;4.70;99.90
17815;DHT22;9031;50.974;11.330;2024-02-28T06:15:01;4.70;99.90
17815;DHT22;9031;50.974;11.330;2024-02-28T06:17:27;4.70;99.90
17815;DHT22;9031;50.974;11.330;2024-02-28T06:19:52;4.70;99.90
17815;DHT22;9031;50.974;11.330;2024-02-28T06:22:18;4.80;99.90
17815;DHT22;9031;50.974;11.330;2024-02-28T06:24:45;4.70;99.90
17815;DHT22;9031;50.974;11.330;2024-02-28T06:27:10;4.70;99.90
17815;DHT22;9031;50.974;11.330;2024-02-28T06:29:41;4.60;99.90
17815;DHT22;9031;50.974;11.330;2024-02-28T06:32:06;4.70;99.90
17815;DHT22;9031;50.974;11.330;2024-02-28T06:34:32;4.70;99.90
17815;DHT22;9031;50.974;11.330;2024-02-28T06:36:57;4.80;99.90
17815;DHT22;9031;50.974;11.330;2024-02-28T06:39:23;4.80;99.90
17815;DHT22;9031;50.974;11.330;2024-02-28T06:41:48;4.60;99.90
17815;DHT22;9031;50.974;11.330;2024-02-28T06:44:20;4.60;99.90
17815;DHT22;9031;50.974;11.330;2024-02-28T06:46:45;4.60;99.90
17815;DHT22;9031;50.974;11.330;2024-02-28T06:49:11;4.80;99.90
17815;DHT22;9031;50.974;11.330;2024-02-28T06:51:36;4.80;99.90
17815;DHT22;9031;50.974;11.330;2024-02-28T06:54:03;5.00;99.90
17815;DHT22;9031;50.974;11.330;2024-02-28T06:56:29;5.00;99.90
17815;DHT22;9031;50.974;11.330;2024-02-28T06:58:55;5.00;99.90
17815;DHT22;9031;50.974;11.330;2024-02-28T07:01:20;5.10;99.90
17815;DHT22;9031;50.974;11.330;2024-02-28T07:03:46;5.20;99.90
17815;DHT22;9031;50.974;11.330;2024-02-28T07:06:11;5.30;99.90
17815;DHT22;9031;50.974;11.330;2024-02-28T07:08:37;5.30;99.90
17815;DHT22;9031;50.974;11.330;2024-02-28T07:11:03;5.20;99.90
17815;DHT22;9031;50.974;11.330;2024-02-28T07:13:29;5.20;99.90
17815;DHT22;9031;50.974;11.330;2024-02-28T07:15:54;5.10;99.90
17815;DHT22;9031;50.974;11.330;2024-02-28T07:18:20;5.10;99.90
17815;DHT22;9031;50.974;11.330;2024-02-28T07:20:46;5.10;99.90
17815;DHT22;9031;50.974;11.330;2024-02-28T07:23:12;5.30;99.90
17815;DHT22;9031;50.974;11.330;2024-02-28T07:25:37;5.30;99.90
17815;DHT22;9031;50.974;11.330;2024-02-28T07:28:03;5.30;99.90
17815;DHT22;9031;50.974;11.330;2024-02-28T07:30:29;5.30;99.90
17815;DHT22;9031;50.974;11.330;2024-02-28T07:32:54;5.00;99.90
17815;DHT22;9031;50.974;11.330;2024-02-28T07:35:20;5.10;99.90
17815;DHT22;9031;50.974;11.330;2024-02-28T07:37:46;5.20;99.90
17815;DHT22;9031;50.974;11.330;2024-02-28T07:40:12;5.40;99.90
17815;DHT22;9031;50.974;11.330;2024-02-28T07:42:38;5.60;99.90
17815;DHT22;9031;50.974;11.330;2024-02-28T07:45:03;5.60;99.90
17815;DHT22;9031;50.974;11.330;2024-02-28T07:47:29;5.60;99.90
17815;DHT22;9031;50.974;11.330;2024-02-28T07:49:54;5.90;99.90
17815;DHT22;9031;50.974;11.330;2024-02-28T07:52:20;6.10;99.90
17815;DHT22;9031;50.974;11.330;2024-02-28T07:54:46;6.00;99.90
17815;DHT22;9031;50.974;11.330;2024-02-28T07:57:12;6.30;99.90
17815;DHT22;9031;50.974;11.330;2024-02-28T07:59:44;6.60;99.90
17815;DHT22;9031;50.974;11.330;2024-02-28T08:02:10;6.50;99.90
17815;DHT22;9031;50.974;11.330;2024-02-28T08:04:39;6.40;99.90
17815;DHT22;9031;50.974;11.330;2024-02-28T08:07:05;6.20;99.90
17815;DHT22;9031;50.974;11.330;2024-02-28T08:09:31;5.90;99.90
17815;DHT22;9031;50.974;11.330;2024-02-28T08:11:56;5.60;99.90
17815;DHT22;9031;50.974;11.330;2024-02-28T08:14:23;5.60;99.90
17815;DHT22;9031;50.974;11.330;2024-02-28T08:16:49;5.80;99.90
17815;DHT22;9031;50.974;11.330;2024-02-28T08:19:15;5.90;99.90
17815;DHT22;9031;50.974;11.330;2024-02-28T08:21:40;6.10;99.90
17815;DHT22;9031;50.974;11.330;2024-02-28T08:24:06;6.20;99.90
17815;DHT22;9031;50.974;11.330;2024-02-28T08:26:31;6.50;99.90
17815;DHT22;9031;50.974;11.330;2024-02-28T08:28:57;7.00;99.90
17815;DHT22;9031;50.974;11.330;2024-02-28T08:31:23;6.70;99.90
17815;DHT22;9031;50.974;11.330;2024-02-28T08:33:48;6.70;99.90
17815;DHT22;9031;50.974;11.330;2024-02-28T08:36:14;6.60;99.90
17815;DHT22;9031;50.974;11.330;2024-02-28T08:38:40;6.60;99.90
17815;DHT22;9031;50.974;11.330;2024-02-28T08:41:07;6.70;99.90
17815;DHT22;9031;50.974;11.330;2024-02-28T08:43:33;6.80;99.90
17815;DHT22;9031;50.974;11.330;2024-02-28T08:45:58;6.90;99.90
17815;DHT22;9031;50.974;11.330;2024-02-28T08:48:24;7.10;99.90
17815;DHT22;9031;50.974;11.330;2024-02-28T08:50:49;7.10;99.90
17815;DHT22;9031;50.974;11.330;2024-02-28T08:53:15;6.90;99.90
17815;DHT22;9031;50.974;11.330;2024-02-28T08:55:40;6.90;99.90
17815;DHT22;9031;50.974;11.330;2024-02-28T08:58:06;7.00;99.90
17815;DHT22;9031;50.974;11.330;2024-02-28T09:00:31;7.00;99.90
17815;DHT22;9031;50.974;11.330;2024-02-28T09:02:57;6.90;99.90
17815;DHT22;9031;50.974;11.330;2024-02-28T09:05:23;6.90;99.90
17815;DHT22;9031;50.974;11.330;2024-02-28T09:07:49;7.00;99.90
17815;DHT22;9031;50.974;11.330;2024-02-28T09:10:17;7.20;99.90
17815;DHT22;9031;50.974;11.330;2024-02-28T09:12:50;7.20;99.90
17815;DHT22;9031;50.974;11.330;2024-02-28T09:15:15;7.10;99.90
17815;DHT22;9031;50.974;11.330;2024-02-28T09:17:41;6.90;99.90
17815;DHT22;9031;50.974;11.330;2024-02-28T09:20:07;7.00;99.90
17815;DHT22;9031;50.974;11.330;2024-02-28T09:22:33;7.30;99.90
17815;DHT22;9031;50.974;11.330;2024-02-28T09:24:59;7.70;99.90
17815;DHT22;9031;50.974;11.330;2024-02-28T09:27:24;7.80;99.90
17815;DHT22;9031;50.974;11.330;2024-02-28T09:29:51;8.10;99.90
17815;DHT22;9031;50.974;11.330;2024-02-28T09:32:16;8.20;99.90
17815;DHT22;9031;50.974;11.330;2024-02-28T09:34:43;8.30;99.90
17815;DHT22;9031;50.974;11.330;2024-02-28T09:37:09;8.50;99.90
17815;DHT22;9031;50.974;11.330;2024-02-28T09:39:37;8.40;99.90
17815;DHT22;9031;50.974;11.330;2024-02-28T09:42:02;8.50;99.90
17815;DHT22;9031;50.974;11.330;2024-02-28T09:44:28;8.60;99.90
17815;DHT22;9031;50.974;11.330;2024-02-28T09:46:54;9.10;99.90
17815;DHT22;9031;50.974;11.330;2024-02-28T09:49:20;9.00;99.90
17815;DHT22;9031;50.974;11.330;2024-02-28T09:51:49;8.80;99.90
17815;DHT22;9031;50.974;11.330;2024-02-28T09:54:16;8.80;99.90
17815;DHT22;9031;50.974;11.330;2024-02-28T09:56:41;8.90;99.90
17815;DHT22;9031;50.974;11.330;2024-02-28T09:59:07;9.30;99.90
17815;DHT22;9031;50.974;11.330;2024-02-28T10:01:40;9.30;99.90
17815;DHT22;9031;50.974;11.330;2024-02-28T10:04:07;9.40;99.90
17815;DHT22;9031;50.974;11.330;2024-02-28T10:06:35;9.60;99.90
17815;DHT22;9031;50.974;11.330;2024-02-28T10:09:01;9.90;99.90
17815;DHT22;9031;50.974;11.330;2024-02-28T10:11:26;10.40;99.90
17815;DHT22;9031;50.974;11.330;2024-02-28T10:13:52;10.70;99.90
17815;DHT22;9031;50.974;11.330;2024-02-28T10:16:20;10.70;99.90
17815;DHT22;9031;50.974;11.330;2024-02-28T10:18:46;10.60;99.90
17815;DHT22;9031;50.974;11.330;2024-02-28T10:21:12;10.90;99.90
17815;DHT22;9031;50.974;11.330;2024-02-28T10:23:38;11.50;99.90
17815;DHT22;9031;50.974;11.330;2024-02-28T10:26:04;11.60;99.90
17815;DHT22;9031;50.974;11.330;2024-02-28T10:28:29;11.70;99.90
17815;DHT22;9031;50.974;11.330;2024-02-28T10:30:55;12.00;99.90
17815;DHT22;9031;50.974;11.330;2024-02-28T10:33:20;12.20;99.90
17815;DHT22;9031;50.974;11.330;2024-02-28T10:35:50;12.10;99.90
17815;DHT22;9031;50.974;11.330;2024-02-28T10:38:17;12.30;99.90
17815;DHT22;9031;50.974;11.330;2024-02-28T10:40:44;12.60;99.90
17815;DHT22;9031;50.974;11.330;2024-02-28T10:43:10;12.80;99.90
17815;DHT22;9031;50.974;11.330;2024-02-28T10:45:37;12.50;99.90
17815;DHT22;9031;50.974;11.330;2024-02-28T10:48:06;12.70;99.90
17815;DHT22;9031;50.974;11.330;2024-02-28T10:50:32;13.00;99.90
17815;DHT22;9031;50.974;11.330;2024-02-28T10:53:02;12.90;99.90
17815;DHT22;9031;50.974;11.330;2024-02-28T10:55:33;12.70;99.90
17815;DHT22;9031;50.974;11.330;2024-02-28T10:58:09;12.60;99.90
17815;DHT22;9031;50.974;11.330;2024-02-28T11:00:42;12.70;99.90
17815;DHT22;9031;50.974;11.330;2024-02-28T11:03:13;12.80;99.90
17815;DHT22;9031;50.974;11.330;2024-02-28T11:05:42;12.90;99.90
17815;DHT22;9031;50.974;11.330;2024-02-28T11:10:43;13.80;99.90
17815;DHT22;9031;50.974;11.330;2024-02-28T11:13:09;13.80;99.90
17815;DHT22;9031;50.974;11.330;2024-02-28T11:15:36;13.50;99.90
17815;DHT22;9031;50.974;11.330;2024-02-28T11:18:08;14.70;99.90
17815;DHT22;9031;50.974;11.330;2024-02-28T11:20:38;15.00;99.90
17815;DHT22;9031;50.974;11.330;2024-02-28T11:23:06;15.00;99.90
17815;DHT22;9031;50.974;11.330;2024-02-28T11:25:31;14.90;99.90
17815;DHT22;9031;50.974;11.330;2024-02-28T11:27:57;15.00;99.90
17815;DHT22;9031;50.974;11.330;2024-02-28T11:30:24;15.20;99.90
17815;DHT22;9031;50.974;11.330;2024-02-28T11:32:54;14.70;99.90
17815;DHT22;9031;50.974;11.330;2024-02-28T11:35:20;14.60;99.90
17815;DHT22;9031;50.974;11.330;2024-02-28T11:37:47;14.80;99.90
17815;DHT22;9031;50.974;11.330;2024-02-28T11:40:16;14.90;99.90
17815;DHT22;9031;50.974;11.330;2024-02-28T11:42:41;15.00;99.90
17815;DHT22;9031;50.974;11.330;2024-02-28T11:45:10;15.40;99.90
17815;DHT22;9031;50.974;11.330;2024-02-28T11:47:36;16.20;99.40
17815;DHT22;9031;50.974;11.330;2024-02-28T11:50:02;16.30;99.20
17815;DHT22;9031;50.974;11.330;2024-02-28T11:52:32;16.20;98.90
17815;DHT22;9031;50.974;11.330;2024-02-28T11:54:57;16.60;99.20
17815;DHT22;9031;50.974;11.330;2024-02-28T11:57:23;17.10;97.20
17815;DHT22;9031;50.974;11.330;2024-02-28T11:59:48;17.90;96.30
17815;DHT22;9031;50.974;11.330;2024-02-28T12:02:15;18.60;95.00
17815;DHT22;9031;50.974;11.330;2024-02-28T12:04:45;19.80;92.90
17815;DHT22;9031;50.974;11.330;2024-02-28T12:07:11;19.10;91.20
17815;DHT22;9031;50.974;11.330;2024-02-28T12:09:37;18.90;92.60
17815;DHT22;9031;50.974;11.330;2024-02-28T12:12:04;19.80;91.90
17815;DHT22;9031;50.974;11.330;2024-02-28T12:14:37;19.00;90.10
17815;DHT22;9031;50.974;11.330;2024-02-28T12:17:05;19.40;91.10
17815;DHT22;9031;50.974;11.330;2024-02-28T12:19:31;19.80;90.20
17815;DHT22;9031;50.974;11.330;2024-02-28T12:21:56;20.30;89.00
17815;DHT22;9031;50.974;11.330;2024-02-28T12:24:24;19.80;89.50
17815;DHT22;9031;50.974;11.330;2024-02-28T12:26:49;19.10;90.90
17815;DHT22;9031;50.974;11.330;2024-02-28T12:29:15;18.90;89.60
17815;DHT22;9031;50.974;11.330;2024-02-28T12:31:40;18.70;90.00
17815;DHT22;9031;50.974;11.330;2024-02-28T12:34:12;19.30;88.70
17815;DHT22;9031;50.974;11.330;2024-02-28T12:36:40;19.60;87.10
17815;DHT22;9031;50.974;11.330;2024-02-28T12:39:06;20.60;86.20
17815;DHT22;9031;50.974;11.330;2024-02-28T12:41:32;20.60;82.90
17815;DHT22;9031;50.974;11.330;2024-02-28T12:43:58;19.40;85.00
17815;DHT22;9031;50.974;11.330;2024-02-28T12:46:23;18.90;84.20
17815;DHT22;9031;50.974;11.330;2024-02-28T12:48:49;18.10;85.40
17815;DHT22;9031;50.974;11.330;2024-02-28T12:51:45;17.60;87.30
17815;DHT22;9031;50.974;11.330;2024-02-28T12:54:12;18.20;82.70
17815;DHT22;9031;50.974;11.330;2024-02-28T12:56:39;17.90;84.20
17815;DHT22;9031;50.974;11.330;2024-02-28T12:59:06;17.60;85.00
17815;DHT22;9031;50.974;11.330;2024-02-28T13:01:34;17.70;85.70
17815;DHT22;9031;50.974;11.330;2024-02-28T13:04:00;18.30;84.50
17815;DHT22;9031;50.974;11.330;2024-02-28T13:06:26;19.20;83.20
17815;DHT22;9031;50.974;11.330;2024-02-28T13:08:51;19.80;81.20
17815;DHT22;9031;50.974;11.330;2024-02-28T13:11:22;20.10;79.70
17815;DHT22;9031;50.974;11.330;2024-02-28T13:13:51;20.20;79.30
17815;DHT22;9031;50.974;11.330;2024-02-28T13:16:18;20.90;78.00
17815;DHT22;9031;50.974;11.330;2024-02-28T13:18:44;20.70;75.80
17815;DHT22;9031;50.974;11.330;2024-02-28T13:21:10;21.10;75.00
17815;DHT22;9031;50.974;11.330;2024-02-28T13:23:36;20.50;77.00
17815;DHT22;9031;50.974;11.330;2024-02-28T13:26:03;20.30;78.30
17815;DHT22;9031;50.974;11.330;2024-02-28T13:28:29;20.00;76.50
17815;DHT22;9031;50.974;11.330;2024-02-28T13:30:58;19.50;77.50
17815;DHT22;9031;50.974;11.330;2024-02-28T13:33:24;19.60;78.10
17815;DHT22;9031;50.974;11.330;2024-02-28T13:35:50;20.40;76.40
17815;DHT22;9031;50.974;11.330;2024-02-28T13:38:15;20.50;76.30
17815;DHT22;9031;50.974;11.330;2024-02-28T13:40:41;20.90;71.10
17815;DHT22;9031;50.974;11.330;2024-02-28T13:43:10;20.50;67.50
17815;DHT22;9031;50.974;11.330;2024-02-28T13:45:35;20.80;69.20
17815;DHT22;9031;50.974;11.330;2024-02-28T13:48:01;20.30;72.50
17815;DHT22;9031;50.974;11.330;2024-02-28T13:50:28;19.70;72.40
17815;DHT22;9031;50.974;11.330;2024-02-28T13:52:57;18.80;73.80
17815;DHT22;9031;50.974;11.330;2024-02-28T13:55:23;18.50;75.10
17815;DHT22;9031;50.974;11.330;2024-02-28T13:57:48;17.90;75.00
17815;DHT22;9031;50.974;11.330;2024-02-28T14:00:14;17.80;76.30
17815;DHT22;9031;50.974;11.330;2024-02-28T14:02:40;17.50;75.50
17815;DHT22;9031;50.974;11.330;2024-02-28T14:05:06;16.80;75.20
17815;DHT22;9031;50.974;11.330;2024-02-28T14:07:33;16.40;75.90
17815;DHT22;9031;50.974;11.330;2024-02-28T14:09:58;16.20;75.60
17815;DHT22;9031;50.974;11.330;2024-02-28T14:12:24;16.60;76.10
17815;DHT22;9031;50.974;11.330;2024-02-28T14:14:49;16.40;75.50
17815;DHT22;9031;50.974;11.330;2024-02-28T14:17:15;15.90;75.20
17815;DHT22;9031;50.974;11.330;2024-02-28T14:19:40;15.20;78.80
17815;DHT22;9031;50.974;11.330;2024-02-28T14:22:07;15.20;78.90
17815;DHT22;9031;50.974;11.330;2024-02-28T14:24:35;14.90;76.20
17815;DHT22;9031;50.974;11.330;2024-02-28T14:27:04;14.40;77.10
17815;DHT22;9031;50.974;11.330;2024-02-28T14:29:29;14.30;79.00
17815;DHT22;9031;50.974;11.330;2024-02-28T14:31:55;14.10;80.50
17815;DHT22;9031;50.974;11.330;2024-02-28T14:34:20;13.90;77.50
17815;DHT22;9031;50.974;11.330;2024-02-28T14:36:47;13.40;79.00
17815;DHT22;9031;50.974;11.330;2024-02-28T14:39:13;13.40;79.20
17815;DHT22;9031;50.974;11.330;2024-02-28T14:41:42;13.90;78.10
17815;DHT22;9031;50.974;11.330;2024-02-28T14:44:09;13.70;72.80
17815;DHT22;9031;50.974;11.330;2024-02-28T14:46:35;13.90;72.30
17815;DHT22;9031;50.974;11.330;2024-02-28T14:49:00;14.30;73.00
17815;DHT22;9031;50.974;11.330;2024-02-28T14:51:26;14.90;73.80
17815;DHT22;9031;50.974;11.330;2024-02-28T14:53:51;14.60;73.90
17815;DHT22;9031;50.974;11.330;2024-02-28T14:56:16;14.50;74.40
17815;DHT22;9031;50.974;11.330;2024-02-28T14:58:44;14.80;73.80
17815;DHT22;9031;50.974;11.330;2024-02-28T15:01:10;14.60;72.30
17815;DHT22;9031;50.974;11.330;2024-02-28T15:03:35;14.60;72.70
17815;DHT22;9031;50.974;11.330;2024-02-28T15:06:01;14.10;73.00
17815;DHT22;9031;50.974;11.330;2024-02-28T15:08:26;14.00;73.20
17815;DHT22;9031;50.974;11.330;2024-02-28T15:10:52;13.90;73.50
17815;DHT22;9031;50.974;11.330;2024-02-28T15:13:18;13.70;73.50
17815;DHT22;9031;50.974;11.330;2024-02-28T15:15:43;13.40;75.40
17815;DHT22;9031;50.974;11.330;2024-02-28T15:18:09;13.20;77.10
17815;DHT22;9031;50.974;11.330;2024-02-28T15:20:34;12.90;78.10
17815;DHT22;9031;50.974;11.330;2024-02-28T15:23:00;13.00;78.10
17815;DHT22;9031;50.974;11.330;2024-02-28T15:25:26;13.00;78.30
17815;DHT22;9031;50.974;11.330;2024-02-28T15:27:51;13.00;77.70
17815;DHT22;9031;50.974;11.330;2024-02-28T15:30:16;13.20;75.10
17815;DHT22;9031;50.974;11.330;2024-02-28T15:32:42;13.10;74.70
17815;DHT22;9031;50.974;11.330;2024-02-28T15:35:08;13.00;76.40